createdAt,value
2018-07-04T00:03:52.708Z,22.30
2018-07-04T00:09:04.288Z,22.40
2018-07-04T00:14:15.662Z,22.50
2018-07-04T00:19:27.149Z,22.60
2018-07-04T00:24:39.038Z,22.70
2018-07-04T00:29:50.547Z,22.70
2018-07-04T00:35:02.056Z,22.80
2018-07-04T00:40:14.009Z,22.80
2018-07-04T00:45:25.667Z,22.70
2018-07-04T00:50:37.202Z,22.60
2018-07-04T00:55:48.648Z,22.60
2018-07-04T01:06:05.611Z,22.50
2018-07-04T01:11:17.024Z,22.40
2018-07-04T01:21:33.822Z,22.40
2018-07-04T01:26:45.280Z,22.40
2018-07-04T01:37:02.215Z,22.30
2018-07-04T01:42:13.977Z,22.10
2018-07-04T01:47:25.467Z,22.10
2018-07-04T01:52:36.880Z,22.10
2018-07-04T01:57:48.316Z,22.10
2018-07-04T02:02:59.644Z,22.10
2018-07-04T02:08:10.983Z,22.10
2018-07-04T02:13:22.438Z,22.00
2018-07-04T02:18:34.036Z,22.00
2018-07-04T02:23:45.431Z,22.00
2018-07-04T02:28:56.848Z,22.00
2018-07-04T02:34:08.268Z,22.10
2018-07-04T02:39:19.657Z,22.10
2018-07-04T02:44:31.047Z,22.20
2018-07-04T02:49:42.542Z,22.10
2018-07-04T02:54:54.022Z,22.10
2018-07-04T03:00:05.554Z,22.00
2018-07-04T03:05:17.353Z,21.90
2018-07-04T03:10:28.909Z,21.90
2018-07-04T03:20:45.887Z,21.70
2018-07-04T03:31:03.011Z,21.50
2018-07-04T03:36:14.565Z,21.30
2018-07-04T03:41:26.050Z,21.20
2018-07-04T03:46:37.726Z,21.00
2018-07-04T03:51:49.306Z,20.90
2018-07-04T03:57:00.670Z,20.80
2018-07-04T04:02:12.300Z,20.80
2018-07-04T04:07:24.153Z,20.90
2018-07-04T04:12:35.946Z,21.00
2018-07-04T04:17:47.458Z,21.20
2018-07-04T04:22:58.909Z,21.30
2018-07-04T04:28:10.361Z,21.40
2018-07-04T04:33:21.916Z,21.50
2018-07-04T04:38:33.303Z,21.70
2018-07-04T04:43:44.795Z,21.80
2018-07-04T04:48:56.348Z,22.00
2018-07-04T04:54:07.766Z,22.10
2018-07-04T04:59:19.220Z,22.30
2018-07-04T05:04:30.610Z,22.60
2018-07-04T05:09:42.010Z,22.90
2018-07-04T05:14:53.730Z,23.10
2018-07-04T05:20:05.092Z,24.00
2018-07-04T05:25:16.571Z,25.10
2018-07-04T05:30:28.140Z,26.10
2018-07-04T05:35:39.566Z,27.50
2018-07-04T05:45:56.632Z,29.50
2018-07-04T05:51:08.696Z,30.40
2018-07-04T06:01:26.530Z,31.30
2018-07-04T06:06:38.196Z,30.80
2018-07-04T06:16:55.623Z,31.50
2018-07-04T06:22:07.597Z,32.20
2018-07-04T06:27:19.423Z,34.00
2018-07-04T06:32:31.047Z,34.40
2018-07-04T06:37:35.612Z,35.40
2018-07-04T06:42:29.194Z,34.50
2018-07-04T06:47:22.332Z,35.60
2018-07-04T06:52:15.890Z,36.00
2018-07-04T07:02:21.564Z,34.60
2018-07-04T07:07:33.758Z,33.90
2018-07-04T07:12:45.798Z,33.10
2018-07-04T07:17:57.523Z,33.10
2018-07-04T07:23:09.225Z,33.60
2018-07-04T07:33:26.620Z,38.20
2018-07-04T07:38:38.577Z,40.50
2018-07-04T07:43:50.282Z,42.60
2018-07-04T07:49:02.186Z,44.50
2018-07-04T07:54:13.905Z,45.70
2018-07-04T07:59:25.657Z,45.90
2018-07-04T08:04:37.524Z,43.80
2018-07-04T08:09:49.188Z,42.90
2018-07-04T08:15:00.995Z,41.80
2018-07-04T08:20:12.594Z,39.70
2018-07-04T08:25:24.424Z,38.20
2018-07-04T08:35:42.285Z,38.70
2018-07-04T08:40:54.108Z,38.40
2018-07-04T08:46:05.862Z,37.70
2018-07-04T08:51:17.684Z,36.60
2018-07-04T08:56:29.565Z,35.70
2018-07-04T09:06:47.343Z,33.70
2018-07-04T09:11:59.284Z,33.00
2018-07-04T09:17:11.177Z,32.30
2018-07-04T09:22:22.853Z,31.70
2018-07-04T09:27:34.512Z,31.30
2018-07-04T09:32:46.209Z,30.60
2018-07-04T09:37:58.179Z,29.90
2018-07-04T09:43:10.078Z,29.20
2018-07-04T09:48:21.659Z,28.60
2018-07-04T09:53:33.106Z,28.10
2018-07-04T09:58:44.763Z,27.90
2018-07-04T10:03:56.684Z,28.20
2018-07-04T10:09:08.318Z,29.10
2018-07-04T10:14:20.086Z,29.90
2018-07-04T10:24:37.819Z,30.30
2018-07-04T10:29:49.641Z,30.20
2018-07-04T10:35:01.266Z,30.20
2018-07-04T10:40:12.926Z,30.40
2018-07-04T10:45:24.737Z,30.40
2018-07-04T10:55:42.310Z,31.20
2018-07-04T11:00:54.203Z,30.70
2018-07-04T11:06:06.192Z,30.60
2018-07-04T11:11:17.963Z,31.10
2018-07-04T11:16:29.736Z,31.30
2018-07-04T11:26:47.242Z,30.60
2018-07-04T11:31:58.927Z,30.50
2018-07-04T11:42:16.366Z,31.20
2018-07-04T11:47:09.496Z,31.60
2018-07-04T11:52:02.677Z,31.80
2018-07-04T11:56:55.877Z,31.90
2018-07-04T12:07:01.740Z,31.70
2018-07-04T12:11:55.032Z,31.60
2018-07-04T12:16:48.181Z,31.50
2018-07-04T12:36:21.657Z,30.30
2018-07-04T12:41:14.775Z,30.00
2018-07-04T12:51:01.584Z,29.50
2018-07-04T12:56:13.872Z,29.20
2018-07-04T13:01:25.685Z,29.00
2018-07-04T13:06:37.452Z,28.80
2018-07-04T13:11:49.234Z,28.60
2018-07-04T13:17:01.119Z,28.40
2018-07-04T13:22:12.810Z,28.20
2018-07-04T13:27:25.142Z,27.70
2018-07-04T13:32:36.575Z,27.40
2018-07-04T13:37:48.081Z,27.10
2018-07-04T13:42:59.860Z,26.90
2018-07-04T13:53:17.951Z,26.90
2018-07-04T13:58:29.863Z,27.00
2018-07-04T14:03:41.517Z,27.20
2018-07-04T14:08:53.106Z,27.40
2018-07-04T14:14:04.654Z,27.50
2018-07-04T14:19:16.442Z,27.70
2018-07-04T14:24:28.053Z,28.10
2018-07-04T14:29:39.695Z,28.30
2018-07-04T14:34:51.860Z,28.60
2018-07-04T14:40:03.882Z,28.80
2018-07-04T14:45:15.775Z,29.00
2018-07-04T14:50:29.096Z,29.20
2018-07-04T15:00:48.186Z,29.50
2018-07-04T15:06:00.388Z,29.60
2018-07-04T15:11:12.242Z,29.70
2018-07-04T15:16:24.567Z,29.70
2018-07-04T15:21:36.632Z,29.60
2018-07-04T15:26:48.372Z,29.50
2018-07-04T15:32:00.151Z,29.50
2018-07-04T15:37:12.493Z,29.50
2018-07-04T15:42:24.288Z,29.30
2018-07-04T15:47:36.035Z,29.20
2018-07-04T15:52:48.224Z,29.20
2018-07-04T15:58:00.092Z,29.10
2018-07-04T16:08:17.606Z,29.00
2018-07-04T16:13:29.394Z,28.90
2018-07-04T16:18:41.197Z,28.80
2018-07-04T16:23:52.815Z,28.90
2018-07-04T16:29:04.687Z,28.90
2018-07-04T16:34:16.733Z,28.80
2018-07-04T16:39:28.593Z,28.80
2018-07-04T16:44:40.578Z,28.80
2018-07-04T16:49:52.291Z,28.70
2018-07-04T16:55:04.027Z,28.60
2018-07-04T17:00:16.542Z,28.40
2018-07-04T17:05:28.358Z,28.40
2018-07-04T17:10:40.576Z,28.30
2018-07-04T17:15:52.148Z,28.30
2018-07-04T17:26:09.375Z,28.10
2018-07-04T17:31:21.184Z,28.00
2018-07-04T17:36:32.863Z,28.00
2018-07-04T17:41:44.606Z,28.10
2018-07-04T17:46:56.299Z,28.20
2018-07-04T17:52:08.049Z,28.30
2018-07-04T17:57:19.512Z,28.00
2018-07-04T18:02:31.222Z,27.80
2018-07-04T18:07:43.308Z,27.70
2018-07-04T18:12:55.880Z,27.60
2018-07-04T18:18:07.868Z,27.50
2018-07-04T18:23:20.309Z,27.40
2018-07-04T18:28:32.362Z,27.30
2018-07-04T18:33:44.064Z,26.80
2018-07-04T18:38:56.044Z,26.50
2018-07-04T18:44:07.823Z,26.20
2018-07-04T18:49:19.566Z,26.00
2018-07-04T18:54:31.207Z,25.70
2018-07-04T18:59:43.019Z,25.60
2018-07-04T19:10:00.206Z,25.30
2018-07-04T19:25:53.261Z,24.80
2018-07-04T19:31:06.192Z,24.70
2018-07-04T19:36:21.578Z,24.60
2018-07-04T19:41:37.227Z,24.50
2018-07-04T19:52:07.482Z,24.20
2018-07-04T19:57:29.490Z,24.10
2018-07-04T20:02:55.867Z,24.00
2018-07-04T20:08:10.847Z,24.00
2018-07-04T20:13:39.162Z,23.80
2018-07-04T20:19:07.381Z,23.60
2018-07-04T20:24:22.936Z,23.50
2018-07-04T20:29:38.706Z,23.40
2018-07-04T20:35:01.281Z,23.30
2018-07-04T20:40:14.971Z,23.20
2018-07-04T20:45:26.776Z,23.10
2018-07-04T20:50:38.538Z,23.00
2018-07-04T20:55:50.351Z,22.90
2018-07-04T21:01:02.172Z,22.90
2018-07-04T21:06:13.793Z,22.80
2018-07-04T21:11:25.372Z,22.70
2018-07-04T21:16:37.019Z,22.70
2018-07-04T21:26:54.290Z,22.60
2018-07-04T21:32:05.663Z,22.50
2018-07-04T21:37:17.053Z,22.40
2018-07-04T21:42:28.475Z,22.40
2018-07-04T21:47:40.054Z,22.30
2018-07-04T21:52:53.940Z,22.30
2018-07-04T21:58:05.882Z,22.30
2018-07-04T22:03:17.707Z,22.30
2018-07-04T22:08:29.176Z,22.30
2018-07-04T22:13:40.742Z,22.20
2018-07-04T22:18:52.283Z,22.10
2018-07-04T22:24:03.877Z,22.00
2018-07-04T22:29:15.492Z,22.00
2018-07-04T22:34:27.096Z,21.90
2018-07-04T22:39:39.216Z,21.80
2018-07-04T22:44:50.908Z,21.70
2018-07-04T22:50:02.364Z,21.60
2018-07-04T22:55:13.994Z,21.60
2018-07-04T23:00:25.624Z,21.50
2018-07-04T23:05:37.280Z,21.40
2018-07-04T23:10:48.901Z,21.40
2018-07-04T23:15:53.932Z,21.30
2018-07-04T23:21:05.496Z,21.20
2018-07-04T23:26:17.152Z,21.10
2018-07-04T23:31:28.731Z,21.10
2018-07-04T23:36:40.116Z,21.10
2018-07-04T23:41:52.919Z,21.00
2018-07-04T23:47:04.690Z,21.00
2018-07-04T23:52:16.142Z,21.00
2018-07-04T23:57:27.543Z,20.90
